Oxford, NE

09:58 PM CDT del 29 Luglio 2014 (GMT -0500)
Kelly (KLXN) Alt. 2411 ft | 40.79 °N, 99.78 °W | Change Station

Current weather conditions updated 23 minutes ago

Scattered Clouds
Nubi sparse
70 °F
Sembra 70 °F
N
7
Vento Variabile Vento da Est

Per domani non si prevedono cambiamenti della temperatura rispetto a oggi.

Oggi
Massima -- | Minima -- °F
--% Possibilità di precip.
Ieri
Massima -- | Minima -- °F
Precip. -- in
6:33 AM 8:55 PM
Luna crescente, 9% visible
Pressione 30.15 in
Visibilità 10.0 miglia
Nuvole Nubi sparse 6500 ft
Nubi sparse 11000 ft
Punto di rugiada 61 °F
Umidità 73%
Piovosità 0.00 in
Spessore del manto nevoso Non disponibile.
Raggi UV 0 fuori da 12
Polline 7.40 fuori da 12
Qualità dell'aria Non disponibile.
Flu Activity Non disponibile.
METAR KLXN 300235Z AUTO 08006KT 10SM SCT065 SCT110 21/16 A3015 RMK AO2 T02130162

More Conditions Fewer Conditions

Pressione 30.15 in
Visibilità 10.0 miglia
Nuvole Nubi sparse 6500 ft
Nubi sparse 11000 ft
Punto di rugiada 61 °F
Umidità 73%
Piovosità 0.00 in
Spessore del manto nevoso Non disponibile.
Raggi UV 0 fuori da 12
Polline 7.40 fuori da 12
Qualità dell'aria Non disponibile.
Flu Activity Non disponibile.
METAR KLXN 300235Z AUTO 08006KT 10SM SCT065 SCT110 21/16 A3015 RMK AO2 T02130162

More Conditions Fewer Conditions

10-Day Weather Forecast

Almanac

Astronomia

Jul. 29, 2014 Alba Tramonto
Ora attuale 06:33 CDT 20:55 CDT
Crepuscolo civile 06:02 CDT 21:26 CDT
Crepuscolo nautico 05:24 CDT 22:04 CDT
Crepuscolo astronomico 04:42 CDT 22:46 CDT
Luna 09:11 CDT (7/29) 22:08 CDT (7/29)
Estensione della luce visibile 15h 23m
Lunghezza del giorno
14h 22m
Tomorrow will be 1m 55s shorter.
Luna crescente, 9% of the Moon is Illuminated
Oggi
Luna crescente
Ago 3
Primo quarto
Ago 10
Luna piena
Ago 17
Ultimo quarto
Ago 25
Nuovo

Gli estremi di oggi

State Highs State Lows

Community

WunderPhotos

Upload Photos

1,738,977 foto caricate!

Nearby

Profondità neve

Stazione Profondità Altitudine
Non sono state evidenziate nuove nevicate

Attività sismica

Città  Distanza Mag. Data & Ora
Non sono state riportate attività sismiche nelle vicinanze.
Minimo Magnitudo Mostrato è 2.5.

Temperature delle acque costiere

Località Temperatura
Nessun dato dalle stazioni

Stazioni meteo nelle vicinanze

In questa zona non ci sono stazioni meteo personali.